Terminal Aerodrome Forecast
Issued by NWS

Home | Current Version | Previous Version | Text Only | Print | Product List | Glossary On
Versions: 1 2 3 4 5 6 7 8 9 10 11 12 13 14 15 16 17 18 19 20 21 22 23 24 25
000
FTUS41 KBGM 240500
TAFRME
TAF
KRME 240535Z 2406/2506 31007KT P6SM SCT020 BKN050
      TEMPO 2406/2410 OVC020
     FM241800 30010KT P6SM SCT100
     FM242300 29004KT P6SM SKC=

USA.gov is the U.S. government's official web portal to all federal, state and local government web resources and services.